Time;durP1;ratioP1;P1;durP2;ratioP2;P2;SDS_P1;SDS_P2;PMS_P1;PMS_P2;Temp;Humidity;BMP_temperature;BMP_pressure;BME280_temperature;BME280_humidity;BME280_pressure;Samples;Min_cycle;Max_cycle;Signal;HPM_P1;HPM_P2
2022/12/11 00:00:20;;;;;;;41.33;19.77;;;;;;;;;;5074827;28;20016;-73
2022/12/11 00:02:47;;;;;;;24.30;12.90;;;;;;;;;;5074572;28;20029;-73
2022/12/11 00:05:13;;;;;;;17.08;9.45;;;;;;;;;;5073900;28;20396;-73
2022/12/11 00:07:39;;;;;;;13.57;8.60;;;;;;;;;;5074334;28;20017;-72
2022/12/11 00:10:06;;;;;;;15.60;8.23;;;;;;;;;;5074329;28;20489;-73
2022/12/11 00:12:32;;;;;;;14.70;8.40;;;;;;;;;;5074564;28;20021;-73
2022/12/11 00:14:59;;;;;;;14.90;9.10;;;;;;;;;;5074236;28;20025;-73
2022/12/11 00:17:25;;;;;;;16.30;8.65;;;;;;;;;;5074290;28;20420;-73
2022/12/11 00:19:51;;;;;;;15.48;8.88;;;;;;;;;;5073865;28;20024;-72
2022/12/11 00:22:17;;;;;;;18.40;9.43;;;;;;;;;;5073909;28;20032;-73
2022/12/11 00:24:44;;;;;;;17.42;9.30;;;;;;;;;;5073743;28;20041;-73
2022/12/11 00:27:10;;;;;;;15.05;8.40;;;;;;;;;;5072670;28;20520;-72
2022/12/11 00:29:36;;;;;;;14.27;9.00;;;;;;;;;;5073940;28;20023;-73
2022/12/11 00:32:03;;;;;;;16.13;8.63;;;;;;;;;;5074053;28;20031;-73
2022/12/11 00:34:29;;;;;;;18.65;10.65;;;;;;;;;;5072408;28;20025;-72
2022/12/11 00:36:57;;;;;;;14.65;9.75;;;;;;;;;;5073856;28;20025;-72
2022/12/11 00:39:24;;;;;;;17.23;9.65;;;;;;;;;;5073618;28;20024;-73
2022/12/11 00:41:50;;;;;;;14.00;8.70;;;;;;;;;;5072538;28;20062;-72
2022/12/11 00:44:16;;;;;;;15.57;9.40;;;;;;;;;;5073401;28;20035;-73
2022/12/11 00:46:43;;;;;;;16.95;8.95;;;;;;;;;;5073497;28;20030;-73
2022/12/11 00:49:09;;;;;;;15.07;9.05;;;;;;;;;;5073420;28;20029;-73
2022/12/11 00:51:35;;;;;;;16.23;9.50;;;;;;;;;;5089089;28;20020;-73
2022/12/11 00:54:02;;;;;;;17.48;10.02;;;;;;;;;;5073530;28;20028;-73
2022/12/11 00:56:29;;;;;;;20.80;10.43;;;;;;;;;;5073436;28;20021;-71
2022/12/11 00:58:55;;;;;;;17.38;9.80;;;;;;;;;;5073302;28;20027;-73
2022/12/11 01:01:22;;;;;;;14.90;9.20;;;;;;;;;;5073528;28;20028;-73
2022/12/11 01:03:48;;;;;;;18.08;9.20;;;;;;;;;;5072599;28;20028;-72
2022/12/11 01:06:16;;;;;;;13.80;8.57;;;;;;;;;;5072996;28;20033;-73
2022/12/11 01:08:43;;;;;;;16.98;10.10;;;;;;;;;;5088850;28;20029;-73
2022/12/11 01:11:11;;;;;;;20.13;10.48;;;;;;;;;;5072051;28;20047;-73
2022/12/11 01:13:38;;;;;;;18.33;10.40;;;;;;;;;;5071624;28;20500;-73
2022/12/11 01:16:09;;;;;;;19.20;10.18;;;;;;;;;;5072908;28;20524;-73
2022/12/11 01:18:35;;;;;;;;;;;;;;;;;;5072936;28;20513;-73
2022/12/11 01:21:05;;;;;;;17.00;9.27;;;;;;;;;;5073068;28;19927;-72
2022/12/11 01:23:31;;;;;;;15.20;9.05;;;;;;;;;;5072841;28;20381;-73
2022/12/11 01:26:03;;;;;;;16.33;9.63;;;;;;;;;;5072809;28;20032;-72
2022/12/11 01:28:29;;;;;;;27.05;14.80;;;;;;;;;;5072929;28;20066;-73
2022/12/11 01:30:56;;;;;;;18.42;10.20;;;;;;;;;;5072354;28;20468;-72
2022/12/11 01:33:22;;;;;;;20.95;11.48;;;;;;;;;;5072827;28;20019;-72
2022/12/11 01:35:48;;;;;;;20.08;10.10;;;;;;;;;;5072634;28;20023;-73
2022/12/11 01:38:15;;;;;;;16.98;9.52;;;;;;;;;;5072446;28;20056;-73
2022/12/11 01:40:46;;;;;;;20.42;10.73;;;;;;;;;;5071139;28;20020;-73
2022/12/11 01:43:12;;;;;;;;;;;;;;;;;;5072798;28;20059;-73
2022/12/11 01:45:39;;;;;;;19.63;9.75;;;;;;;;;;5072028;28;19912;-73
2022/12/11 01:48:05;;;;;;;19.27;9.27;;;;;;;;;;5072343;28;20032;-73
2022/12/11 01:50:34;;;;;;;18.05;9.45;;;;;;;;;;5072594;28;20027;-72
2022/12/11 01:53:01;;;;;;;18.30;9.90;;;;;;;;;;5072456;28;20029;-72
2022/12/11 01:55:27;;;;;;;15.63;8.98;;;;;;;;;;5072536;28;20044;-73
2022/12/11 01:57:54;;;;;;;17.15;9.77;;;;;;;;;;5072576;28;20070;-72
2022/12/11 02:00:20;;;;;;;18.48;9.82;;;;;;;;;;5072206;28;20027;-73
2022/12/11 02:02:47;;;;;;;17.30;9.88;;;;;;;;;;5072457;28;20016;-72
2022/12/11 02:05:13;;;;;;;16.95;9.30;;;;;;;;;;5072337;28;20033;-73
2022/12/11 02:07:46;;;;;;;18.27;10.48;;;;;;;;;;5072251;28;20012;-72
2022/12/11 02:10:12;;;;;;;16.90;9.88;;;;;;;;;;5072231;28;20095;-72
2022/12/11 02:12:42;;;;;;;17.20;10.50;;;;;;;;;;5072009;28;20392;-73
2022/12/11 02:15:35;;;;;;;17.73;10.20;;;;;;;;;;5071682;28;20021;-72
2022/12/11 02:18:17;;;;;;;18.20;9.98;;;;;;;;;;5070070;28;20401;-73
2022/12/11 02:20:48;;;;;;;17.90;11.20;;;;;;;;;;5070712;28;20037;-73
2022/12/11 02:23:17;;;;;;;17.25;9.40;;;;;;;;;;5070980;28;20058;-73
2022/12/11 02:26:02;;;;;;;17.50;9.77;;;;;;;;;;5071993;28;20498;-73
2022/12/11 02:28:35;;;;;;;20.38;9.38;;;;;;;;;;5071873;28;20025;-73
2022/12/11 02:31:04;;;;;;;18.58;10.20;;;;;;;;;;5071767;28;20031;-73
2022/12/11 02:33:36;;;;;;;22.27;9.95;;;;;;;;;;5072130;28;20024;-72
2022/12/11 02:36:04;;;;;;;16.95;9.57;;;;;;;;;;5071866;28;20386;-73
2022/12/11 02:38:32;;;;;;;18.85;9.80;;;;;;;;;;5071708;28;20036;-73
2022/12/11 02:41:00;;;;;;;17.27;10.13;;;;;;;;;;5071795;28;20554;-72
2022/12/11 02:43:27;;;;;;;18.20;9.52;;;;;;;;;;5071302;28;20028;-72
2022/12/11 02:45:53;;;;;;;19.67;9.90;;;;;;;;;;5071564;28;20062;-73
2022/12/11 02:48:21;;;;;;;15.02;8.88;;;;;;;;;;5071887;28;20393;-73
2022/12/11 02:50:50;;;;;;;15.85;8.90;;;;;;;;;;5071778;28;20374;-73
2022/12/11 02:53:18;;;;;;;16.38;9.15;;;;;;;;;;5087215;28;20020;-73
2022/12/11 02:55:45;;;;;;;18.27;9.85;;;;;;;;;;5071664;28;20031;-73
2022/12/11 02:58:17;;;;;;;16.77;9.25;;;;;;;;;;5072834;28;20078;-73
2022/12/11 03:00:44;;;;;;;17.38;9.98;;;;;;;;;;5075595;28;20566;-72
2022/12/11 03:03:11;;;;;;;16.65;9.50;;;;;;;;;;5075701;28;20028;-73
2022/12/11 03:05:37;;;;;;;17.98;9.68;;;;;;;;;;5075417;28;20033;-73
2022/12/11 03:08:04;;;;;;;16.48;9.50;;;;;;;;;;5075290;28;20028;-72
2022/12/11 03:10:30;;;;;;;19.98;10.30;;;;;;;;;;5075365;28;20402;-72
2022/12/11 03:12:58;;;;;;;16.23;8.93;;;;;;;;;;5075011;28;20034;-73
2022/12/11 03:15:32;;;;;;;15.30;9.23;;;;;;;;;;5075154;28;20036;-72
2022/12/11 03:17:58;;;;;;;22.17;10.57;;;;;;;;;;5075129;28;20078;-73
2022/12/11 03:20:37;;;;;;;19.58;10.65;;;;;;;;;;5075290;28;20492;-72
2022/12/11 03:23:03;;;;;;;21.17;10.07;;;;;;;;;;5075252;28;20038;-72
2022/12/11 03:25:56;;;;;;;19.55;10.85;;;;;;;;;;5075002;28;20032;-72
2022/12/11 03:28:22;;;;;;;21.00;10.13;;;;;;;;;;5071339;28;20040;-72
2022/12/11 03:30:50;;;;;;;18.15;10.35;;;;;;;;;;5074782;28;20477;-72
2022/12/11 03:33:25;;;;;;;17.90;10.15;;;;;;;;;;5074851;28;20073;-72
2022/12/11 03:35:53;;;;;;;17.52;9.55;;;;;;;;;;5074792;28;20486;-72
2022/12/11 03:38:26;;;;;;;18.77;10.02;;;;;;;;;;5074794;28;20044;-72
2022/12/11 03:40:54;;;;;;;16.55;9.80;;;;;;;;;;5073769;28;20028;-72
2022/12/11 03:43:21;;;;;;;16.25;9.57;;;;;;;;;;5074300;28;20025;-72
2022/12/11 03:45:49;;;;;;;14.95;9.02;;;;;;;;;;5073365;28;20040;-73
2022/12/11 03:48:17;;;;;;;21.27;9.23;;;;;;;;;;5074754;28;20025;-72
2022/12/11 03:50:43;;;;;;;16.20;8.80;;;;;;;;;;5074699;28;20069;-72
2022/12/11 03:53:10;;;;;;;16.83;9.32;;;;;;;;;;5074715;28;20473;-71
2022/12/11 03:55:37;;;;;;;18.77;10.27;;;;;;;;;;5074679;28;20130;-70
2022/12/11 03:58:04;;;;;;;16.90;9.73;;;;;;;;;;5074224;28;20028;-72
2022/12/11 04:00:30;;;;;;;17.10;9.93;;;;;;;;;;5074600;28;20037;-72
2022/12/11 04:03:11;;;;;;;17.67;10.45;;;;;;;;;;5074480;28;20035;-71
2022/12/11 04:05:38;;;;;;;16.63;9.98;;;;;;;;;;5074187;28;20033;-72
2022/12/11 04:08:04;;;;;;;20.02;10.98;;;;;;;;;;5074247;28;20174;-72
2022/12/11 04:10:30;;;;;;;18.73;11.10;;;;;;;;;;5073806;28;20043;-72
2022/12/11 04:12:57;;;;;;;20.95;11.30;;;;;;;;;;5074271;28;20401;-72
2022/12/11 04:15:23;;;;;;;22.85;12.48;;;;;;;;;;5074321;28;20035;-72
2022/12/11 04:26:09;;;;;;;20.98;11.82;;;;;;;;;;5053594;28;20039;-71
2022/12/11 04:28:35;;;;;;;22.77;11.88;;;;;;;;;;5054290;28;20080;-72
2022/12/11 04:31:02;;;;;;;18.80;10.20;;;;;;;;;;5069555;28;20029;-72
2022/12/11 04:33:29;;;;;;;19.15;10.98;;;;;;;;;;5053702;28;20021;-73
2022/12/11 04:35:59;;;;;;;24.35;12.38;;;;;;;;;;5069170;28;20059;-72
2022/12/11 04:38:25;;;;;;;23.88;12.68;;;;;;;;;;5053683;28;20037;-72
2022/12/11 04:41:02;;;;;;;26.42;13.20;;;;;;;;;;5055600;28;20033;-72
2022/12/11 04:43:28;;;;;;;21.90;10.85;;;;;;;;;;5073463;28;20028;-72
2022/12/11 04:46:01;;;;;;;21.95;11.75;;;;;;;;;;5073530;28;20025;-72
2022/12/11 04:48:28;;;;;;;20.75;11.23;;;;;;;;;;5073447;28;20021;-72
2022/12/11 04:50:54;;;;;;;20.65;10.50;;;;;;;;;;5073512;28;20397;-72
2022/12/11 04:53:20;;;;;;;23.38;11.90;;;;;;;;;;5072153;28;20482;-72
2022/12/11 04:55:47;;;;;;;21.20;11.35;;;;;;;;;;5072966;28;20025;-72
2022/12/11 04:58:13;;;;;;;18.85;10.15;;;;;;;;;;5073703;28;20020;-72
2022/12/11 05:00:40;;;;;;;22.88;12.20;;;;;;;;;;5088898;28;20055;-72
2022/12/11 05:03:06;;;;;;;19.75;11.13;;;;;;;;;;5073058;28;20043;-72
2022/12/11 05:05:33;;;;;;;24.38;11.82;;;;;;;;;;5073180;28;20444;-72
2022/12/11 05:07:59;;;;;;;21.77;11.35;;;;;;;;;;5073000;28;20025;-72
2022/12/11 05:10:25;;;;;;;19.33;10.77;;;;;;;;;;5072740;28;20028;-72
2022/12/11 05:12:51;;;;;;;20.48;12.05;;;;;;;;;;5072944;28;20029;-72
2022/12/11 05:15:18;;;;;;;21.27;11.27;;;;;;;;;;5073212;28;20035;-72
2022/12/11 05:17:44;;;;;;;17.95;9.85;;;;;;;;;;5073104;28;20027;-72
2022/12/11 05:20:11;;;;;;;18.90;11.02;;;;;;;;;;5072486;28;20039;-72
2022/12/11 05:22:38;;;;;;;19.20;11.23;;;;;;;;;;5071552;28;20028;-72
2022/12/11 05:25:05;;;;;;;21.58;11.32;;;;;;;;;;5071258;28;20035;-72
2022/12/11 05:27:39;;;;;;;21.45;11.50;;;;;;;;;;5071605;28;20493;-72
2022/12/11 05:30:05;;;;;;;20.05;11.23;;;;;;;;;;5072642;28;20020;-72
2022/12/11 05:32:32;;;;;;;22.58;11.48;;;;;;;;;;5072777;28;20032;-72
2022/12/11 05:34:58;;;;;;;25.65;12.00;;;;;;;;;;5072969;28;20070;-72
2022/12/11 05:37:24;;;;;;;22.33;11.45;;;;;;;;;;5072146;28;20493;-73
2022/12/11 05:39:51;;;;;;;21.42;11.52;;;;;;;;;;5072612;28;20025;-71
2022/12/11 05:42:17;;;;;;;21.25;11.55;;;;;;;;;;5072632;28;20024;-72
2022/12/11 05:44:43;;;;;;;27.60;14.00;;;;;;;;;;5072384;28;20101;-74
2022/12/11 05:47:10;;;;;;;20.90;11.98;;;;;;;;;;5072626;28;20029;-73
2022/12/11 05:49:36;;;;;;;20.70;11.32;;;;;;;;;;5072361;28;20028;-73
2022/12/11 05:52:02;;;;;;;20.45;11.25;;;;;;;;;;5072356;28;20043;-73
2022/12/11 05:54:29;;;;;;;20.98;11.18;;;;;;;;;;5087952;28;20500;-73
2022/12/11 05:56:55;;;;;;;19.40;10.18;;;;;;;;;;5072723;28;20047;-73
2022/12/11 05:59:21;;;;;;;20.35;10.98;;;;;;;;;;5071020;28;20038;-73
2022/12/11 06:01:47;;;;;;;19.27;10.93;;;;;;;;;;5072234;28;20032;-73
2022/12/11 06:04:14;;;;;;;30.15;15.60;;;;;;;;;;5072290;28;20028;-73
2022/12/11 06:06:42;;;;;;;25.65;13.32;;;;;;;;;;5071820;28;20032;-73
2022/12/11 06:09:12;;;;;;;23.48;11.52;;;;;;;;;;5072167;28;20017;-73
2022/12/11 06:11:38;;;;;;;20.13;11.48;;;;;;;;;;5072161;28;20023;-73
2022/12/11 06:14:04;;;;;;;21.60;10.95;;;;;;;;;;5071924;28;20181;-73
2022/12/11 06:16:31;;;;;;;22.90;11.40;;;;;;;;;;5072056;28;20025;-73
2022/12/11 06:18:58;;;;;;;21.17;10.63;;;;;;;;;;5072098;28;20035;-73
2022/12/11 06:21:26;;;;;;;20.80;11.07;;;;;;;;;;5071540;28;20070;-73
2022/12/11 06:23:53;;;;;;;21.45;11.27;;;;;;;;;;5072399;28;20038;-73
2022/12/11 06:26:19;;;;;;;26.98;12.88;;;;;;;;;;5072221;28;20043;-73
2022/12/11 06:28:46;;;;;;;25.02;11.88;;;;;;;;;;5071836;28;20029;-73
2022/12/11 06:31:13;;;;;;;20.50;10.98;;;;;;;;;;5071878;28;20485;-73
2022/12/11 06:33:39;;;;;;;19.30;10.13;;;;;;;;;;5074333;28;20062;-73
2022/12/11 06:36:11;;;;;;;20.13;11.15;;;;;;;;;;5074392;28;20382;-73
2022/12/11 06:38:38;;;;;;;15.52;9.52;;;;;;;;;;5075664;28;20045;-73
2022/12/11 06:41:05;;;;;;;18.73;10.38;;;;;;;;;;5075954;28;20557;-73
2022/12/11 06:43:31;;;;;;;21.73;11.00;;;;;;;;;;5075838;28;20029;-73
2022/12/11 06:45:58;;;;;;;19.05;10.30;;;;;;;;;;5075817;28;20045;-73
2022/12/11 06:48:25;;;;;;;22.13;10.88;;;;;;;;;;5075927;28;20047;-73
2022/12/11 06:50:51;;;;;;;19.98;10.10;;;;;;;;;;5075501;28;20404;-73
2022/12/11 06:53:17;;;;;;;17.92;9.70;;;;;;;;;;5075738;28;20032;-73
2022/12/11 06:55:44;;;;;;;23.02;10.35;;;;;;;;;;5075629;28;20027;-73
2022/12/11 06:58:10;;;;;;;20.95;10.25;;;;;;;;;;5075937;28;20154;-73
2022/12/11 07:00:37;;;;;;;17.25;9.45;;;;;;;;;;5075501;28;20389;-73
2022/12/11 07:03:04;;;;;;;19.15;9.65;;;;;;;;;;5075540;28;20416;-74
2022/12/11 07:05:31;;;;;;;16.77;9.80;;;;;;;;;;5075257;28;20058;-73
2022/12/11 07:07:57;;;;;;;16.20;9.38;;;;;;;;;;5075541;28;20035;-73
2022/12/11 07:10:24;;;;;;;17.52;9.25;;;;;;;;;;5075394;28;20032;-73
2022/12/11 07:12:52;;;;;;;17.55;9.88;;;;;;;;;;5075482;28;20023;-73
2022/12/11 07:15:18;;;;;;;18.02;10.13;;;;;;;;;;5075568;28;20024;-73
2022/12/11 07:17:45;;;;;;;19.83;10.25;;;;;;;;;;5075215;28;20416;-73
2022/12/11 07:20:11;;;;;;;18.50;9.73;;;;;;;;;;5074924;28;20034;-73
2022/12/11 07:22:37;;;;;;;21.33;11.75;;;;;;;;;;5074899;28;20412;-73
2022/12/11 07:25:04;;;;;;;21.38;10.77;;;;;;;;;;5075097;28;20040;-74
2022/12/11 07:27:30;;;;;;;23.08;11.57;;;;;;;;;;5075121;28;20029;-73
2022/12/11 07:29:56;;;;;;;18.38;10.15;;;;;;;;;;5075072;28;20027;-73
2022/12/11 07:32:23;;;;;;;18.75;10.45;;;;;;;;;;5075066;28;20017;-72
2022/12/11 07:34:50;;;;;;;17.73;9.70;;;;;;;;;;5074814;28;20074;-72
2022/12/11 07:37:16;;;;;;;22.27;11.93;;;;;;;;;;5074931;28;20047;-73
2022/12/11 07:39:43;;;;;;;20.60;10.63;;;;;;;;;;5075216;28;20021;-73
2022/12/11 07:42:09;;;;;;;18.42;10.13;;;;;;;;;;5075058;28;20024;-72
2022/12/11 07:44:35;;;;;;;16.38;9.15;;;;;;;;;;5074259;28;20077;-73
2022/12/11 07:47:02;;;;;;;17.30;9.27;;;;;;;;;;5075034;28;20029;-72
2022/12/11 07:49:28;;;;;;;41.42;18.80;;;;;;;;;;5074360;28;20542;-73
2022/12/11 07:51:54;;;;;;;84.15;29.00;;;;;;;;;;5074593;28;20085;-72
2022/12/11 07:54:21;;;;;;;32.38;14.70;;;;;;;;;;5074627;28;20025;-73
2022/12/11 07:56:47;;;;;;;38.58;17.33;;;;;;;;;;5074428;28;20027;-72
2022/12/11 07:59:14;;;;;;;66.40;28.08;;;;;;;;;;5074468;28;20031;-73
2022/12/11 08:01:41;;;;;;;28.52;13.90;;;;;;;;;;5074556;28;20013;-73
2022/12/11 08:04:08;;;;;;;25.10;12.93;;;;;;;;;;5074122;28;20032;-73
2022/12/11 08:06:35;;;;;;;19.13;10.77;;;;;;;;;;5074234;28;20399;-73
2022/12/11 08:09:03;;;;;;;16.23;9.70;;;;;;;;;;5074650;28;20025;-72
2022/12/11 08:11:30;;;;;;;19.38;11.15;;;;;;;;;;5074525;28;20033;-73
2022/12/11 08:13:58;;;;;;;19.90;11.20;;;;;;;;;;5074391;28;20013;-73
2022/12/11 08:16:25;;;;;;;20.58;11.63;;;;;;;;;;5074272;28;20034;-73
2022/12/11 08:18:51;;;;;;;18.02;10.45;;;;;;;;;;5073712;28;20033;-73
2022/12/11 08:21:19;;;;;;;19.77;10.85;;;;;;;;;;5074014;28;20017;-72
2022/12/11 08:23:46;;;;;;;30.98;14.30;;;;;;;;;;5074331;28;20039;-73
2022/12/11 08:26:13;;;;;;;28.27;13.57;;;;;;;;;;5073946;28;20512;-73
2022/12/11 08:28:40;;;;;;;19.20;10.90;;;;;;;;;;5074112;28;20534;-72
2022/12/11 08:31:07;;;;;;;21.38;10.57;;;;;;;;;;5073832;28;20408;-73
2022/12/11 08:33:33;;;;;;;19.20;9.77;;;;;;;;;;5073512;28;20371;-72
2022/12/11 08:36:07;;;;;;;15.55;9.18;;;;;;;;;;5073671;28;20039;-73
2022/12/11 08:38:34;;;;;;;16.80;9.65;;;;;;;;;;5073729;28;20033;-73
2022/12/11 08:41:07;;;;;;;16.60;9.02;;;;;;;;;;5073974;28;20024;-72
2022/12/11 08:43:34;;;;;;;15.30;8.75;;;;;;;;;;5073668;28;20109;-73
2022/12/11 08:46:00;;;;;;;18.35;10.57;;;;;;;;;;5073179;28;20036;-73
2022/12/11 08:48:27;;;;;;;18.23;10.85;;;;;;;;;;5072614;28;20033;-71
2022/12/11 08:50:53;;;;;;;17.20;10.23;;;;;;;;;;5073623;28;20137;-72
2022/12/11 08:53:19;;;;;;;16.45;9.77;;;;;;;;;;5073281;28;20032;-72
2022/12/11 08:55:46;;;;;;;18.15;10.25;;;;;;;;;;5072656;28;20371;-73
2022/12/11 08:58:12;;;;;;;25.08;12.23;;;;;;;;;;5073422;28;20070;-72
2022/12/11 09:00:38;;;;;;;25.05;13.10;;;;;;;;;;5073119;28;20024;-72
2022/12/11 09:03:04;;;;;;;22.70;12.38;;;;;;;;;;5089023;28;20039;-73
2022/12/11 09:05:31;;;;;;;30.88;14.10;;;;;;;;;;5073242;28;20050;-72
2022/12/11 09:07:57;;;;;;;22.75;12.73;;;;;;;;;;5073390;28;20066;-72
2022/12/11 09:10:24;;;;;;;23.10;12.48;;;;;;;;;;5073273;28;20020;-72
2022/12/11 09:12:50;;;;;;;23.98;13.18;;;;;;;;;;5072961;28;20028;-73
2022/12/11 09:15:16;;;;;;;22.42;12.02;;;;;;;;;;5072689;28;20016;-73
2022/12/11 09:17:43;;;;;;;21.25;13.07;;;;;;;;;;5073129;28;20400;-73
2022/12/11 09:20:09;;;;;;;24.35;12.85;;;;;;;;;;5072802;28;20021;-72
2022/12/11 09:22:36;;;;;;;22.13;12.30;;;;;;;;;;5072812;28;20038;-73
2022/12/11 09:25:02;;;;;;;21.98;12.25;;;;;;;;;;5072861;28;20477;-72
2022/12/11 09:27:28;;;;;;;22.35;12.43;;;;;;;;;;5072781;28;20477;-73
2022/12/11 09:29:55;;;;;;;19.42;10.43;;;;;;;;;;5072781;28;20031;-73
2022/12/11 09:32:21;;;;;;;15.82;9.35;;;;;;;;;;5072865;28;20028;-73
2022/12/11 09:34:49;;;;;;;15.18;9.63;;;;;;;;;;5072703;28;20497;-73
2022/12/11 09:37:16;;;;;;;14.55;8.82;;;;;;;;;;5070564;28;20054;-73
2022/12/11 09:39:42;;;;;;;18.85;8.60;;;;;;;;;;5072690;28;20024;-73
2022/12/11 09:42:18;;;;;;;13.07;8.15;;;;;;;;;;5072402;28;20379;-73
2022/12/11 09:44:48;;;;;;;13.80;8.35;;;;;;;;;;5071954;28;20049;-73
2022/12/11 09:47:22;;;;;;;14.55;8.68;;;;;;;;;;5072325;28;20028;-73
2022/12/11 09:50:09;;;;;;;11.07;7.50;;;;;;;;;;5072451;28;20507;-73
2022/12/11 09:52:44;;;;;;;75.90;27.83;;;;;;;;;;5065136;28;20497;-73
2022/12/11 09:55:15;;;;;;;53.72;20.90;;;;;;;;;;5088308;28;20033;-73
2022/12/11 09:57:42;;;;;;;13.18;7.40;;;;;;;;;;5088133;28;20024;-73
2022/12/11 10:00:11;;;;;;;12.75;7.55;;;;;;;;;;5071927;28;20042;-74
2022/12/11 10:02:38;;;;;;;15.05;9.07;;;;;;;;;;5072473;28;20097;-73
2022/12/11 10:05:07;;;;;;;13.43;8.45;;;;;;;;;;5072350;28;20032;-73
2022/12/11 10:07:48;;;;;;;16.55;9.70;;;;;;;;;;5072006;28;20027;-73
2022/12/11 10:10:21;;;;;;;15.15;9.30;;;;;;;;;;5072684;28;20029;-74
2022/12/11 10:13:10;;;;;;;14.60;9.63;;;;;;;;;;5071888;28;20094;-73
2022/12/11 10:15:43;;;;;;;12.25;8.40;;;;;;;;;;5072117;28;20393;-74
2022/12/11 10:18:12;;;;;;;10.60;7.40;;;;;;;;;;5071877;28;20384;-74
2022/12/11 10:20:41;;;;;;;11.57;8.23;;;;;;;;;;5072248;28;20107;-74
2022/12/11 10:23:09;;;;;;;12.80;8.55;;;;;;;;;;5071591;28;20017;-74
2022/12/11 10:25:37;;;;;;;11.57;8.15;;;;;;;;;;5071830;28;20043;-74
2022/12/11 10:28:13;;;;;;;12.07;8.15;;;;;;;;;;5071679;28;20031;-73
2022/12/11 10:30:43;;;;;;;13.93;8.98;;;;;;;;;;5071858;28;20035;-74
2022/12/11 10:33:25;;;;;;;14.63;9.00;;;;;;;;;;5072127;28;20081;-73
2022/12/11 10:35:52;;;;;;;12.43;8.25;;;;;;;;;;5072146;28;20021;-74
2022/12/11 10:38:29;;;;;;;13.60;8.48;;;;;;;;;;5071733;28;20051;-73
2022/12/11 10:40:58;;;;;;;11.02;7.72;;;;;;;;;;5071833;28;20043;-74
2022/12/11 10:43:34;;;;;;;13.90;9.93;;;;;;;;;;5071452;28;20023;-74
2022/12/11 10:46:00;;;;;;;17.25;10.88;;;;;;;;;;5087425;28;20036;-73
2022/12/11 10:48:27;;;;;;;12.75;8.70;;;;;;;;;;5072596;28;20027;-74
2022/12/11 10:50:58;;;;;;;13.40;9.40;;;;;;;;;;5071960;28;20373;-74
2022/12/11 10:53:25;;;;;;;10.25;7.40;;;;;;;;;;5071672;28;20019;-74
2022/12/11 10:55:51;;;;;;;12.25;7.45;;;;;;;;;;5071589;28;20020;-74
2022/12/11 10:58:19;;;;;;;14.88;8.38;;;;;;;;;;5071534;28;20520;-73
2022/12/11 11:00:46;;;;;;;14.45;8.70;;;;;;;;;;5071567;28;20028;-74
2022/12/11 11:03:26;;;;;;;11.70;7.85;;;;;;;;;;5071589;28;20021;-74
2022/12/11 11:06:06;;;;;;;12.40;7.80;;;;;;;;;;5071696;28;20032;-73
2022/12/11 11:08:39;;;;;;;10.50;7.43;;;;;;;;;;5071642;28;20028;-74
2022/12/11 11:11:07;;;;;;;9.20;6.75;;;;;;;;;;5071285;28;20485;-73
2022/12/11 11:13:34;;;;;;;10.38;7.32;;;;;;;;;;5071640;28;20419;-74
2022/12/11 11:16:08;;;;;;;8.45;6.22;;;;;;;;;;5071704;28;20027;-73
2022/12/11 11:18:35;;;;;;;11.13;7.03;;;;;;;;;;5071807;28;20021;-73
2022/12/11 11:21:01;;;;;;;10.57;7.47;;;;;;;;;;5075185;28;20020;-73
2022/12/11 11:23:28;;;;;;;10.35;7.15;;;;;;;;;;5075130;28;20431;-74
2022/12/11 11:25:56;;;;;;;16.42;9.10;;;;;;;;;;5074775;28;20052;-73
2022/12/11 11:28:46;;;;;;;10.23;7.15;;;;;;;;;;5073958;28;20032;-73
2022/12/11 11:31:14;;;;;;;10.50;7.07;;;;;;;;;;5075108;28;20033;-73
2022/12/11 11:33:46;;;;;;;10.25;6.90;;;;;;;;;;5075281;28;20025;-73
2022/12/11 11:36:26;;;;;;;10.75;7.13;;;;;;;;;;5075249;28;20025;-74
2022/12/11 11:39:08;;;;;;;8.85;7.00;;;;;;;;;;5073654;28;20048;-73
2022/12/11 11:41:43;;;;;;;10.05;7.05;;;;;;;;;;5074478;28;20032;-73
2022/12/11 11:44:12;;;;;;;8.65;6.45;;;;;;;;;;5074800;28;20492;-73
2022/12/11 11:46:42;;;;;;;8.63;6.60;;;;;;;;;;5074891;28;20041;-73
2022/12/11 11:49:14;;;;;;;8.70;6.30;;;;;;;;;;5074932;28;20058;-73
2022/12/11 11:51:47;;;;;;;9.60;6.18;;;;;;;;;;5074683;28;20036;-74
2022/12/11 11:54:32;;;;;;;9.07;7.07;;;;;;;;;;5074829;28;20017;-73
2022/12/11 11:56:58;;;;;;;11.38;8.00;;;;;;;;;;5074925;28;20020;-73
2022/12/11 11:59:30;;;;;;;12.18;7.50;;;;;;;;;;5074787;28;20037;-73
2022/12/11 12:01:57;;;;;;;13.00;7.60;;;;;;;;;;5074388;28;20033;-73
2022/12/11 12:04:25;;;;;;;14.13;9.20;;;;;;;;;;5074746;28;20074;-73
2022/12/11 12:06:52;;;;;;;10.95;7.70;;;;;;;;;;5074253;28;20037;-73
2022/12/11 12:09:30;;;;;;;11.68;7.50;;;;;;;;;;5074154;28;20032;-73
2022/12/11 12:12:07;;;;;;;12.20;7.85;;;;;;;;;;5074397;28;20077;-73
2022/12/11 12:14:45;;;;;;;12.85;8.20;;;;;;;;;;5074151;28;20397;-73
2022/12/11 12:17:18;;;;;;;10.77;7.80;;;;;;;;;;5074203;28;20392;-73
2022/12/11 12:19:51;;;;;;;11.95;8.02;;;;;;;;;;5074178;28;20074;-73
2022/12/11 12:22:27;;;;;;;11.35;8.35;;;;;;;;;;5074323;28;20034;-73
2022/12/11 12:24:56;;;;;;;10.60;8.00;;;;;;;;;;5073783;28;20031;-73
2022/12/11 12:27:44;;;;;;;13.88;8.27;;;;;;;;;;5074277;28;20028;-73
2022/12/11 12:30:16;;;;;;;11.88;8.40;;;;;;;;;;5073424;28;20028;-73
2022/12/11 12:32:50;;;;;;;13.02;8.98;;;;;;;;;;5072671;28;20030;-73
2022/12/11 12:35:19;;;;;;;11.80;8.02;;;;;;;;;;5074099;28;20081;-72
2022/12/11 12:37:46;;;;;;;11.65;8.63;;;;;;;;;;5073417;28;20425;-72
2022/12/11 12:40:18;;;;;;;13.48;8.82;;;;;;;;;;5073780;28;20515;-73
2022/12/11 12:43:02;;;;;;;10.82;8.25;;;;;;;;;;5073583;28;20036;-74
2022/12/11 12:45:55;;;;;;;11.60;8.70;;;;;;;;;;5073554;28;20039;-73
2022/12/11 12:48:24;;;;;;;11.10;8.68;;;;;;;;;;5071780;28;20040;-73
2022/12/11 12:50:50;;;;;;;12.82;8.88;;;;;;;;;;5073853;28;20028;-73
2022/12/11 12:53:22;;;;;;;13.55;9.45;;;;;;;;;;5073160;28;20016;-72
2022/12/11 12:55:49;;;;;;;10.65;9.02;;;;;;;;;;5073341;28;20020;-73
2022/12/11 12:58:48;;;;;;;13.23;10.02;;;;;;;;;;5073441;28;20401;-73
2022/12/11 13:01:14;;;;;;;11.68;9.02;;;;;;;;;;5031594;28;20043;-73
2022/12/11 13:04:01;;;;;;;11.63;9.05;;;;;;;;;;5031206;28;20083;-73
2022/12/11 13:06:30;;;;;;;13.77;9.18;;;;;;;;;;5031200;28;20041;-73
2022/12/11 13:08:57;;;;;;;11.57;9.15;;;;;;;;;;5014253;28;20030;-73
2022/12/11 13:11:31;;;;;;;13.48;9.30;;;;;;;;;;5031075;28;20030;-73
2022/12/11 13:14:05;;;;;;;11.63;9.50;;;;;;;;;;5031169;28;20029;-73
2022/12/11 13:16:39;;;;;;;11.23;8.93;;;;;;;;;;5030864;28;20478;-73
2022/12/11 13:19:17;;;;;;;11.85;8.95;;;;;;;;;;5030984;28;20035;-73
2022/12/11 13:21:54;;;;;;;8.98;8.00;;;;;;;;;;5037981;28;20078;-73
2022/12/11 13:24:20;;;;;;;11.25;8.73;;;;;;;;;;5050859;28;20039;-73
2022/12/11 13:26:47;;;;;;;10.65;8.48;;;;;;;;;;5050481;28;20545;-73
2022/12/11 13:29:32;;;;;;;11.00;8.05;;;;;;;;;;5050584;28;20035;-73
2022/12/11 13:31:59;;;;;;;10.32;8.02;;;;;;;;;;5050431;28;20033;-73
2022/12/11 13:34:28;;;;;;;11.07;8.07;;;;;;;;;;5050776;28;20033;-73
2022/12/11 13:36:56;;;;;;;14.23;8.95;;;;;;;;;;5062094;28;20036;-73
2022/12/11 13:39:27;;;;;;;11.40;8.88;;;;;;;;;;5072788;28;20073;-73
2022/12/11 13:41:56;;;;;;;11.43;8.75;;;;;;;;;;5072339;28;20027;-73
2022/12/11 13:44:26;;;;;;;11.98;8.73;;;;;;;;;;5072571;28;20497;-73
2022/12/11 13:46:54;;;;;;;10.88;8.13;;;;;;;;;;5071520;28;20037;-72
2022/12/11 13:49:26;;;;;;;9.00;7.55;;;;;;;;;;5072754;28;20038;-72
2022/12/11 13:51:53;;;;;;;11.68;7.53;;;;;;;;;;5072041;28;20397;-73
2022/12/11 13:54:20;;;;;;;11.73;8.02;;;;;;;;;;5072377;28;20046;-72
2022/12/11 13:56:53;;;;;;;8.85;7.15;;;;;;;;;;5072479;28;20027;-73
2022/12/11 13:59:21;;;;;;;8.65;6.80;;;;;;;;;;5072296;28;20106;-72
2022/12/11 14:01:47;;;;;;;18.58;7.28;;;;;;;;;;5072390;28;20024;-72
2022/12/11 14:04:15;;;;;;;10.38;7.78;;;;;;;;;;5072519;28;20027;-72
2022/12/11 14:06:42;;;;;;;22.02;7.30;;;;;;;;;;5071724;28;20032;-73
2022/12/11 14:09:08;;;;;;;8.77;6.53;;;;;;;;;;5072155;28;20024;-72
2022/12/11 14:11:40;;;;;;;11.02;7.78;;;;;;;;;;5072460;28;20024;-72
2022/12/11 14:14:07;;;;;;;12.57;8.77;;;;;;;;;;5072321;28;20028;-72
2022/12/11 14:16:34;;;;;;;14.30;8.82;;;;;;;;;;5071071;28;20029;-72
2022/12/11 14:19:05;;;;;;;25.77;10.25;;;;;;;;;;5072401;28;20020;-72
2022/12/11 14:21:31;;;;;;;12.73;9.30;;;;;;;;;;5070496;28;20020;-72
2022/12/11 14:23:59;;;;;;;12.15;9.73;;;;;;;;;;5071863;28;20033;-72
2022/12/11 14:26:27;;;;;;;13.77;9.90;;;;;;;;;;5071932;28;20036;-72
2022/12/11 14:28:53;;;;;;;11.27;9.15;;;;;;;;;;5071841;28;20387;-72
2022/12/11 14:31:27;;;;;;;7.95;6.43;;;;;;;;;;5071947;28;20507;-73
2022/12/11 14:33:57;;;;;;;10.38;7.72;;;;;;;;;;5071598;28;20489;-73
2022/12/11 14:36:23;;;;;;;11.55;8.05;;;;;;;;;;5071956;28;20074;-72
2022/12/11 14:38:55;;;;;;;9.10;6.35;;;;;;;;;;5071776;28;20045;-72
2022/12/11 14:41:26;;;;;;;7.85;5.88;;;;;;;;;;5071826;28;20024;-72
2022/12/11 14:43:56;;;;;;;8.75;5.82;;;;;;;;;;5071988;28;20025;-72